createdAt,value
2023-04-08T00:06:12.752Z,35.58
2023-04-08T00:12:55.789Z,29.88
2023-04-08T00:19:38.085Z,26.88
2023-04-08T00:26:20.489Z,35.70
2023-04-08T00:33:03.175Z,28.92
2023-04-08T00:39:45.489Z,27.60
2023-04-08T00:46:28.619Z,28.88
2023-04-08T00:53:11.180Z,29.27
2023-04-08T00:59:53.573Z,33.15
2023-04-08T01:06:45.452Z,29.88
2023-04-08T01:13:34.491Z,30.70
2023-04-08T01:20:17.668Z,28.17
2023-04-08T01:27:02.506Z,25.17
2023-04-08T01:33:46.260Z,24.85
2023-04-08T01:40:28.655Z,31.02
2023-04-08T01:47:14.797Z,31.08
2023-04-08T01:53:57.108Z,33.25
2023-04-08T02:00:42.823Z,27.30
2023-04-08T02:07:25.278Z,29.45
2023-04-08T02:14:07.484Z,39.72
2023-04-08T02:21:13.969Z,46.70
2023-04-08T02:27:56.807Z,35.45
2023-04-08T02:34:41.826Z,45.00
2023-04-08T02:41:27.961Z,46.58
2023-04-08T02:48:11.416Z,47.17
2023-04-08T02:54:54.143Z,33.85
2023-04-08T03:01:36.433Z,40.17
2023-04-08T03:08:18.717Z,35.35
2023-04-08T03:15:01.881Z,33.70
2023-04-08T03:21:44.470Z,27.02
2023-04-08T03:28:26.746Z,31.80
2023-04-08T03:35:09.590Z,38.10
2023-04-08T03:41:51.837Z,25.95
2023-04-08T03:48:34.222Z,36.42
2023-04-08T03:55:16.513Z,29.25
2023-04-08T04:01:58.730Z,35.25
2023-04-08T04:08:41.089Z,31.30
2023-04-08T04:15:23.281Z,38.90
2023-04-08T04:22:05.660Z,36.20
2023-04-08T04:28:48.032Z,30.30
2023-04-08T04:35:30.657Z,31.10
2023-04-08T04:42:13.007Z,38.65
2023-04-08T04:48:55.152Z,45.70
2023-04-08T04:55:38.754Z,47.00
2023-04-08T05:02:22.059Z,44.50
2023-04-08T05:09:04.429Z,41.33
2023-04-08T05:15:46.850Z,42.05
2023-04-08T05:22:29.304Z,43.30
2023-04-08T05:29:11.769Z,44.45
2023-04-08T05:35:53.941Z,35.63
2023-04-08T05:42:36.389Z,27.45
2023-04-08T05:49:19.015Z,30.35
2023-04-08T05:56:01.259Z,45.00
2023-04-08T06:02:43.626Z,38.92
2023-04-08T06:09:26.472Z,28.92
2023-04-08T06:16:14.735Z,29.48
2023-04-08T06:22:57.577Z,27.52
2023-04-08T06:29:41.766Z,26.67
2023-04-08T06:36:25.650Z,18.92
2023-04-08T06:43:08.216Z,21.92
2023-04-08T06:49:54.529Z,20.48
2023-04-08T06:56:37.463Z,18.55
2023-04-08T07:03:19.711Z,19.98
2023-04-08T07:10:02.008Z,21.23
2023-04-08T07:16:44.293Z,18.95
2023-04-08T07:23:27.734Z,21.48
2023-04-08T07:30:10.317Z,20.23
2023-04-08T07:36:52.471Z,22.15
2023-04-08T07:43:36.408Z,24.10
2023-04-08T07:50:18.966Z,25.27
2023-04-08T07:57:02.263Z,22.65
2023-04-08T08:03:44.966Z,20.98
2023-04-08T08:10:27.658Z,20.38
2023-04-08T08:17:09.853Z,23.50
2023-04-08T08:23:56.865Z,21.15
2023-04-08T08:30:39.026Z,22.90
2023-04-08T08:37:21.387Z,22.73
2023-04-08T08:44:07.154Z,20.95
2023-04-08T08:50:49.307Z,21.95
2023-04-08T08:57:31.673Z,21.35
2023-04-08T09:04:20.465Z,22.38
2023-04-08T09:11:12.686Z,23.30
2023-04-08T09:17:54.903Z,20.35
2023-04-08T09:24:38.267Z,20.95
2023-04-08T09:31:27.816Z,17.08
2023-04-08T09:38:10.699Z,17.73
2023-04-08T09:44:54.763Z,20.77
2023-04-08T09:52:11.568Z,18.65
2023-04-08T09:59:02.238Z,14.00
2023-04-08T10:05:46.271Z,15.45
2023-04-08T10:12:28.674Z,16.98
2023-04-08T10:19:43.127Z,22.17
2023-04-08T10:26:43.302Z,16.83
2023-04-08T10:33:34.769Z,33.38
2023-04-08T10:40:20.458Z,26.33
2023-04-08T10:47:03.141Z,29.90
2023-04-08T10:53:45.328Z,25.15
2023-04-08T11:00:37.409Z,16.80
2023-04-08T11:07:21.322Z,56.45
2023-04-08T11:14:05.362Z,22.52
2023-04-08T11:20:50.694Z,23.77
2023-04-08T11:27:33.667Z,19.60
2023-04-08T11:34:24.406Z,19.95
2023-04-08T11:41:06.602Z,18.73
2023-04-08T11:47:49.139Z,17.40
2023-04-08T11:54:33.273Z,17.90
2023-04-08T12:01:16.044Z,20.08
2023-04-08T12:07:58.264Z,16.42
2023-04-08T12:14:40.530Z,15.38
2023-04-08T12:21:22.988Z,18.25
2023-04-08T12:28:05.389Z,15.25
2023-04-08T12:34:47.792Z,17.52
2023-04-08T12:41:30.003Z,16.45
2023-04-08T12:48:13.226Z,15.75
2023-04-08T12:54:55.472Z,13.75
2023-04-08T13:01:37.942Z,14.27
2023-04-08T13:08:20.246Z,10.65
2023-04-08T13:15:02.396Z,11.52
2023-04-08T13:21:46.271Z,15.38
2023-04-08T13:28:28.926Z,15.35
2023-04-08T13:35:11.487Z,17.42
2023-04-08T13:41:53.706Z,16.27
2023-04-08T13:48:36.074Z,13.55
2023-04-08T13:55:18.521Z,12.43
2023-04-08T14:02:00.894Z,13.50
2023-04-08T14:08:43.067Z,12.73
2023-04-08T14:15:25.390Z,13.32
2023-04-08T14:22:07.712Z,28.42
2023-04-08T14:28:50.533Z,9.07
2023-04-08T14:35:33.008Z,11.23
2023-04-08T14:42:17.185Z,14.60
2023-04-08T14:55:41.626Z,13.18
2023-04-08T15:02:23.856Z,11.88
2023-04-08T15:09:06.463Z,13.90
2023-04-08T15:15:48.819Z,13.55
2023-04-08T15:22:31.132Z,10.40
2023-04-08T15:29:13.542Z,11.02
2023-04-08T15:35:57.539Z,22.05
2023-04-08T15:42:39.800Z,18.92
2023-04-08T15:49:22.054Z,18.80
2023-04-08T15:56:04.515Z,12.85
2023-04-08T16:02:47.036Z,13.18
2023-04-08T16:09:30.435Z,25.45
2023-04-08T16:16:12.753Z,23.85
2023-04-08T16:22:55.326Z,25.88
2023-04-08T16:29:38.104Z,38.65
2023-04-08T16:36:21.242Z,36.72
2023-04-08T16:43:05.539Z,31.45
2023-04-08T16:49:47.775Z,36.92
2023-04-08T16:56:30.343Z,30.85
2023-04-08T17:03:12.655Z,30.00
2023-04-08T17:09:54.992Z,26.83
2023-04-08T17:16:37.287Z,32.35
2023-04-08T17:23:19.601Z,32.53
2023-04-08T17:30:02.297Z,29.70
2023-04-08T17:36:44.831Z,30.70
2023-04-08T17:43:27.297Z,30.42
2023-04-08T17:50:11.734Z,31.17
2023-04-08T17:56:54.423Z,34.30
2023-04-08T18:03:36.932Z,39.00
2023-04-08T18:10:19.424Z,37.72
2023-04-08T18:17:02.390Z,40.08
2023-04-08T18:23:48.788Z,33.45
2023-04-08T18:30:31.298Z,37.55
2023-04-08T18:37:16.888Z,34.08
2023-04-08T18:44:03.031Z,35.38
2023-04-08T18:50:45.948Z,30.13
2023-04-08T18:57:28.239Z,35.42
2023-04-08T19:04:11.205Z,36.75
2023-04-08T19:10:53.471Z,39.90
2023-04-08T19:17:35.750Z,33.25
2023-04-08T19:24:17.955Z,34.95
2023-04-08T19:31:02.203Z,35.25
2023-04-08T19:37:44.345Z,41.35
2023-04-08T19:44:27.561Z,31.10
2023-04-08T19:51:17.073Z,27.77
2023-04-08T19:57:59.264Z,29.42
2023-04-08T20:04:41.567Z,39.10
2023-04-08T20:11:24.129Z,45.75
2023-04-08T20:18:06.478Z,41.13
2023-04-08T20:24:49.381Z,50.70
2023-04-08T20:31:32.280Z,51.22
2023-04-08T20:38:14.686Z,51.97
2023-04-08T20:44:56.919Z,61.92
2023-04-08T20:51:39.454Z,54.03
2023-04-08T20:58:21.869Z,43.22
2023-04-08T21:05:04.345Z,50.95
2023-04-08T21:11:46.540Z,46.30
2023-04-08T21:18:28.785Z,53.17
2023-04-08T21:25:11.323Z,55.97
2023-04-08T21:31:53.631Z,51.50
2023-04-08T21:38:36.288Z,54.33
2023-04-08T21:45:19.142Z,49.88
2023-04-08T21:52:01.266Z,45.15
2023-04-08T21:58:43.476Z,46.13
2023-04-08T22:05:26.042Z,50.78
2023-04-08T22:12:10.750Z,47.13
2023-04-08T22:18:53.259Z,35.40
2023-04-08T22:25:35.920Z,31.15
2023-04-08T22:32:18.333Z,28.23
2023-04-08T22:39:00.539Z,42.90
2023-04-08T22:45:42.760Z,36.05
2023-04-08T22:52:25.053Z,44.72
2023-04-08T22:59:07.261Z,41.65
2023-04-08T23:05:50.401Z,43.92
2023-04-08T23:12:32.692Z,51.60
2023-04-08T23:19:14.985Z,55.53
2023-04-08T23:25:57.221Z,56.33
2023-04-08T23:32:39.733Z,65.18
2023-04-08T23:39:21.895Z,57.10
2023-04-08T23:46:04.217Z,56.58
2023-04-08T23:52:46.587Z,64.45
2023-04-08T23:59:28.971Z,68.45
